sensor_id;sensor_type;location;lat;lon;timestamp;P1;durP1;ratioP1;P2;durP2;ratioP2
18042;SDS011;9146;48.074;11.968;2023-05-19T00:01:21;12.00;;;6.10;;
18042;SDS011;9146;48.074;11.968;2023-05-19T00:03:49;7.83;;;5.30;;
18042;SDS011;9146;48.074;11.968;2023-05-19T00:06:19;6.50;;;4.80;;
18042;SDS011;9146;48.074;11.968;2023-05-19T00:08:49;7.13;;;4.90;;
18042;SDS011;9146;48.074;11.968;2023-05-19T00:11:20;12.27;;;5.83;;
18042;SDS011;9146;48.074;11.968;2023-05-19T00:13:47;16.77;;;5.33;;
18042;SDS011;9146;48.074;11.968;2023-05-19T00:16:15;8.60;;;5.53;;
18042;SDS011;9146;48.074;11.968;2023-05-19T00:18:44;7.87;;;5.90;;
18042;SDS011;9146;48.074;11.968;2023-05-19T00:21:11;14.57;;;6.60;;
18042;SDS011;9146;48.074;11.968;2023-05-19T00:23:39;8.23;;;4.60;;
18042;SDS011;9146;48.074;11.968;2023-05-19T00:26:06;9.47;;;4.80;;
18042;SDS011;9146;48.074;11.968;2023-05-19T00:28:33;7.67;;;4.97;;
18042;SDS011;9146;48.074;11.968;2023-05-19T00:31:00;11.97;;;6.07;;
18042;SDS011;9146;48.074;11.968;2023-05-19T00:33:27;11.83;;;4.87;;
18042;SDS011;9146;48.074;11.968;2023-05-19T00:35:55;9.37;;;5.63;;
18042;SDS011;9146;48.074;11.968;2023-05-19T00:38:22;12.90;;;5.70;;
18042;SDS011;9146;48.074;11.968;2023-05-19T00:40:49;12.43;;;5.17;;
18042;SDS011;9146;48.074;11.968;2023-05-19T00:43:16;8.93;;;5.00;;
18042;SDS011;9146;48.074;11.968;2023-05-19T00:45:43;12.40;;;4.80;;
18042;SDS011;9146;48.074;11.968;2023-05-19T00:48:11;14.33;;;6.20;;
18042;SDS011;9146;48.074;11.968;2023-05-19T00:50:38;10.53;;;5.20;;
18042;SDS011;9146;48.074;11.968;2023-05-19T00:53:07;7.73;;;5.40;;
18042;SDS011;9146;48.074;11.968;2023-05-19T00:55:34;9.03;;;5.00;;
18042;SDS011;9146;48.074;11.968;2023-05-19T00:58:04;11.33;;;5.73;;
18042;SDS011;9146;48.074;11.968;2023-05-19T01:00:32;10.40;;;5.27;;
18042;SDS011;9146;48.074;11.968;2023-05-19T01:03:00;7.40;;;4.43;;
18042;SDS011;9146;48.074;11.968;2023-05-19T01:05:35;12.33;;;5.63;;
18042;SDS011;9146;48.074;11.968;2023-05-19T01:08:02;9.40;;;5.70;;
18042;SDS011;9146;48.074;11.968;2023-05-19T01:10:31;12.13;;;5.40;;
18042;SDS011;9146;48.074;11.968;2023-05-19T01:12:58;8.90;;;5.03;;
18042;SDS011;9146;48.074;11.968;2023-05-19T01:15:25;10.57;;;5.70;;
18042;SDS011;9146;48.074;11.968;2023-05-19T01:17:54;13.77;;;5.43;;
18042;SDS011;9146;48.074;11.968;2023-05-19T01:20:29;17.70;;;5.90;;
18042;SDS011;9146;48.074;11.968;2023-05-19T01:23:13;10.67;;;5.87;;
18042;SDS011;9146;48.074;11.968;2023-05-19T01:25:58;9.50;;;5.30;;
18042;SDS011;9146;48.074;11.968;2023-05-19T01:31:50;9.83;;;5.20;;
18042;SDS011;9146;48.074;11.968;2023-05-19T01:34:19;9.10;;;5.60;;
18042;SDS011;9146;48.074;11.968;2023-05-19T01:36:48;8.50;;;4.77;;
18042;SDS011;9146;48.074;11.968;2023-05-19T01:39:16;10.13;;;5.17;;
18042;SDS011;9146;48.074;11.968;2023-05-19T01:41:45;12.40;;;5.20;;
18042;SDS011;9146;48.074;11.968;2023-05-19T01:44:12;10.80;;;5.23;;
18042;SDS011;9146;48.074;11.968;2023-05-19T01:46:40;8.60;;;5.20;;
18042;SDS011;9146;48.074;11.968;2023-05-19T01:49:08;14.17;;;6.63;;
18042;SDS011;9146;48.074;11.968;2023-05-19T01:51:36;13.47;;;6.20;;
18042;SDS011;9146;48.074;11.968;2023-05-19T01:54:03;7.30;;;5.57;;
18042;SDS011;9146;48.074;11.968;2023-05-19T01:56:31;9.53;;;5.03;;
18042;SDS011;9146;48.074;11.968;2023-05-19T01:59:18;10.10;;;5.93;;
18042;SDS011;9146;48.074;11.968;2023-05-19T02:01:53;12.83;;;6.20;;
18042;SDS011;9146;48.074;11.968;2023-05-19T02:04:26;10.77;;;5.77;;
18042;SDS011;9146;48.074;11.968;2023-05-19T02:07:04;9.60;;;5.73;;
18042;SDS011;9146;48.074;11.968;2023-05-19T02:09:39;6.60;;;5.90;;
18042;SDS011;9146;48.074;11.968;2023-05-19T02:12:18;10.50;;;5.33;;
18042;SDS011;9146;48.074;11.968;2023-05-19T02:14:50;7.77;;;4.60;;
18042;SDS011;9146;48.074;11.968;2023-05-19T02:17:23;10.37;;;5.80;;
18042;SDS011;9146;48.074;11.968;2023-05-19T02:19:55;9.70;;;5.43;;
18042;SDS011;9146;48.074;11.968;2023-05-19T02:22:22;16.10;;;6.40;;
18042;SDS011;9146;48.074;11.968;2023-05-19T02:24:49;10.80;;;6.20;;
18042;SDS011;9146;48.074;11.968;2023-05-19T02:27:16;10.70;;;5.67;;
18042;SDS011;9146;48.074;11.968;2023-05-19T02:29:43;10.00;;;5.27;;
18042;SDS011;9146;48.074;11.968;2023-05-19T02:32:10;11.47;;;5.20;;
18042;SDS011;9146;48.074;11.968;2023-05-19T02:34:37;7.93;;;5.27;;
18042;SDS011;9146;48.074;11.968;2023-05-19T02:37:05;8.37;;;5.57;;
18042;SDS011;9146;48.074;11.968;2023-05-19T02:39:32;9.93;;;5.87;;
18042;SDS011;9146;48.074;11.968;2023-05-19T02:41:59;17.00;;;5.57;;
18042;SDS011;9146;48.074;11.968;2023-05-19T02:44:27;7.60;;;5.00;;
18042;SDS011;9146;48.074;11.968;2023-05-19T02:46:54;7.40;;;5.00;;
18042;SDS011;9146;48.074;11.968;2023-05-19T02:49:20;7.13;;;5.53;;
18042;SDS011;9146;48.074;11.968;2023-05-19T02:51:47;12.20;;;5.80;;
18042;SDS011;9146;48.074;11.968;2023-05-19T02:54:15;13.37;;;5.20;;
18042;SDS011;9146;48.074;11.968;2023-05-19T02:56:42;14.30;;;6.00;;
18042;SDS011;9146;48.074;11.968;2023-05-19T02:59:09;8.07;;;5.63;;
18042;SDS011;9146;48.074;11.968;2023-05-19T03:01:36;8.00;;;4.50;;
18042;SDS011;9146;48.074;11.968;2023-05-19T03:04:04;14.87;;;5.03;;
18042;SDS011;9146;48.074;11.968;2023-05-19T03:06:31;12.47;;;5.77;;
18042;SDS011;9146;48.074;11.968;2023-05-19T03:08:58;12.37;;;5.90;;
18042;SDS011;9146;48.074;11.968;2023-05-19T03:11:26;11.13;;;5.30;;
18042;SDS011;9146;48.074;11.968;2023-05-19T03:13:54;15.23;;;5.87;;
18042;SDS011;9146;48.074;11.968;2023-05-19T03:16:21;11.57;;;5.13;;
18042;SDS011;9146;48.074;11.968;2023-05-19T03:18:49;7.80;;;5.40;;
18042;SDS011;9146;48.074;11.968;2023-05-19T03:21:16;14.47;;;5.43;;
18042;SDS011;9146;48.074;11.968;2023-05-19T03:23:43;9.10;;;5.13;;
18042;SDS011;9146;48.074;11.968;2023-05-19T03:26:09;10.50;;;5.70;;
18042;SDS011;9146;48.074;11.968;2023-05-19T03:28:38;13.03;;;5.73;;
18042;SDS011;9146;48.074;11.968;2023-05-19T03:31:05;13.77;;;6.37;;
18042;SDS011;9146;48.074;11.968;2023-05-19T03:33:31;8.40;;;4.97;;
18042;SDS011;9146;48.074;11.968;2023-05-19T03:35:58;7.67;;;4.87;;
18042;SDS011;9146;48.074;11.968;2023-05-19T03:38:25;13.17;;;5.93;;
18042;SDS011;9146;48.074;11.968;2023-05-19T03:40:52;9.30;;;5.60;;
18042;SDS011;9146;48.074;11.968;2023-05-19T03:43:19;15.80;;;5.80;;
18042;SDS011;9146;48.074;11.968;2023-05-19T03:45:47;8.93;;;4.83;;
18042;SDS011;9146;48.074;11.968;2023-05-19T03:48:14;8.80;;;4.80;;
18042;SDS011;9146;48.074;11.968;2023-05-19T03:50:41;8.63;;;5.43;;
18042;SDS011;9146;48.074;11.968;2023-05-19T03:53:09;14.77;;;6.43;;
18042;SDS011;9146;48.074;11.968;2023-05-19T03:55:36;6.40;;;5.10;;
18042;SDS011;9146;48.074;11.968;2023-05-19T03:58:04;15.93;;;6.93;;
18042;SDS011;9146;48.074;11.968;2023-05-19T04:00:31;11.30;;;6.13;;
18042;SDS011;9146;48.074;11.968;2023-05-19T04:02:59;14.93;;;6.27;;
18042;SDS011;9146;48.074;11.968;2023-05-19T04:05:26;13.07;;;6.60;;
18042;SDS011;9146;48.074;11.968;2023-05-19T04:07:53;8.97;;;6.13;;
18042;SDS011;9146;48.074;11.968;2023-05-19T04:10:20;14.20;;;6.73;;
18042;SDS011;9146;48.074;11.968;2023-05-19T04:12:47;9.57;;;5.70;;
18042;SDS011;9146;48.074;11.968;2023-05-19T04:15:14;8.50;;;5.50;;
18042;SDS011;9146;48.074;11.968;2023-05-19T04:17:41;9.67;;;5.90;;
18042;SDS011;9146;48.074;11.968;2023-05-19T04:20:11;14.30;;;7.10;;
18042;SDS011;9146;48.074;11.968;2023-05-19T04:22:38;11.93;;;7.20;;
18042;SDS011;9146;48.074;11.968;2023-05-19T04:25:06;14.33;;;5.80;;
18042;SDS011;9146;48.074;11.968;2023-05-19T04:27:33;7.43;;;5.30;;
18042;SDS011;9146;48.074;11.968;2023-05-19T04:30:02;8.70;;;5.27;;
18042;SDS011;9146;48.074;11.968;2023-05-19T04:32:30;12.57;;;6.50;;
18042;SDS011;9146;48.074;11.968;2023-05-19T04:34:57;11.20;;;5.87;;
18042;SDS011;9146;48.074;11.968;2023-05-19T04:37:25;7.63;;;6.40;;
18042;SDS011;9146;48.074;11.968;2023-05-19T04:39:54;7.30;;;5.33;;
18042;SDS011;9146;48.074;11.968;2023-05-19T04:42:21;9.80;;;5.43;;
18042;SDS011;9146;48.074;11.968;2023-05-19T04:44:50;9.37;;;5.30;;
18042;SDS011;9146;48.074;11.968;2023-05-19T04:47:17;11.10;;;5.97;;
18042;SDS011;9146;48.074;11.968;2023-05-19T04:49:45;12.33;;;5.20;;
18042;SDS011;9146;48.074;11.968;2023-05-19T04:52:12;6.50;;;5.80;;
18042;SDS011;9146;48.074;11.968;2023-05-19T04:54:41;12.03;;;5.37;;
18042;SDS011;9146;48.074;11.968;2023-05-19T04:57:08;13.60;;;6.70;;
18042;SDS011;9146;48.074;11.968;2023-05-19T04:59:37;12.70;;;6.07;;
18042;SDS011;9146;48.074;11.968;2023-05-19T05:02:04;10.43;;;5.87;;
18042;SDS011;9146;48.074;11.968;2023-05-19T05:04:31;11.00;;;6.13;;
18042;SDS011;9146;48.074;11.968;2023-05-19T05:06:57;11.13;;;6.60;;
18042;SDS011;9146;48.074;11.968;2023-05-19T05:09:24;10.20;;;6.13;;
18042;SDS011;9146;48.074;11.968;2023-05-19T05:11:53;13.97;;;6.57;;
18042;SDS011;9146;48.074;11.968;2023-05-19T05:14:20;7.10;;;6.10;;
18042;SDS011;9146;48.074;11.968;2023-05-19T05:16:48;11.40;;;6.17;;
18042;SDS011;9146;48.074;11.968;2023-05-19T05:19:16;8.13;;;5.40;;
18042;SDS011;9146;48.074;11.968;2023-05-19T05:21:43;7.33;;;5.40;;
18042;SDS011;9146;48.074;11.968;2023-05-19T05:24:13;8.93;;;5.60;;
18042;SDS011;9146;48.074;11.968;2023-05-19T05:26:40;11.83;;;6.60;;
18042;SDS011;9146;48.074;11.968;2023-05-19T05:29:09;9.83;;;6.17;;
18042;SDS011;9146;48.074;11.968;2023-05-19T05:31:36;9.93;;;7.70;;
18042;SDS011;9146;48.074;11.968;2023-05-19T05:34:03;11.60;;;6.40;;
18042;SDS011;9146;48.074;11.968;2023-05-19T05:36:30;13.90;;;6.97;;
18042;SDS011;9146;48.074;11.968;2023-05-19T05:38:59;12.50;;;7.40;;
18042;SDS011;9146;48.074;11.968;2023-05-19T05:41:26;15.00;;;6.10;;
18042;SDS011;9146;48.074;11.968;2023-05-19T05:43:53;9.50;;;5.33;;
18042;SDS011;9146;48.074;11.968;2023-05-19T05:46:21;8.70;;;5.60;;
18042;SDS011;9146;48.074;11.968;2023-05-19T05:48:48;8.30;;;5.33;;
18042;SDS011;9146;48.074;11.968;2023-05-19T05:51:16;9.50;;;5.40;;
18042;SDS011;9146;48.074;11.968;2023-05-19T05:53:43;12.50;;;6.23;;
18042;SDS011;9146;48.074;11.968;2023-05-19T05:56:13;8.33;;;6.10;;
18042;SDS011;9146;48.074;11.968;2023-05-19T05:58:41;8.77;;;5.80;;
18042;SDS011;9146;48.074;11.968;2023-05-19T06:01:08;17.80;;;6.00;;
18042;SDS011;9146;48.074;11.968;2023-05-19T06:03:37;8.03;;;5.20;;
18042;SDS011;9146;48.074;11.968;2023-05-19T06:06:06;8.93;;;5.73;;
18042;SDS011;9146;48.074;11.968;2023-05-19T06:08:34;9.53;;;5.83;;
18042;SDS011;9146;48.074;11.968;2023-05-19T06:11:01;9.97;;;6.33;;
18042;SDS011;9146;48.074;11.968;2023-05-19T06:13:32;12.33;;;6.10;;
18042;SDS011;9146;48.074;11.968;2023-05-19T06:16:00;12.17;;;5.40;;
18042;SDS011;9146;48.074;11.968;2023-05-19T06:18:27;10.17;;;5.80;;
18042;SDS011;9146;48.074;11.968;2023-05-19T06:20:55;10.30;;;6.53;;
18042;SDS011;9146;48.074;11.968;2023-05-19T06:23:22;9.17;;;6.57;;
18042;SDS011;9146;48.074;11.968;2023-05-19T06:25:50;9.17;;;5.63;;
18042;SDS011;9146;48.074;11.968;2023-05-19T06:28:17;12.13;;;7.00;;
18042;SDS011;9146;48.074;11.968;2023-05-19T06:30:44;9.10;;;5.77;;
18042;SDS011;9146;48.074;11.968;2023-05-19T06:33:11;7.57;;;5.40;;
18042;SDS011;9146;48.074;11.968;2023-05-19T06:35:38;6.13;;;4.80;;
18042;SDS011;9146;48.074;11.968;2023-05-19T06:38:06;9.60;;;7.30;;
18042;SDS011;9146;48.074;11.968;2023-05-19T06:40:34;11.00;;;6.20;;
18042;SDS011;9146;48.074;11.968;2023-05-19T06:43:01;7.17;;;5.50;;
18042;SDS011;9146;48.074;11.968;2023-05-19T06:45:28;13.50;;;5.90;;
18042;SDS011;9146;48.074;11.968;2023-05-19T06:47:55;10.70;;;5.50;;
18042;SDS011;9146;48.074;11.968;2023-05-19T06:50:23;7.73;;;5.30;;
18042;SDS011;9146;48.074;11.968;2023-05-19T06:52:50;10.10;;;6.13;;
18042;SDS011;9146;48.074;11.968;2023-05-19T06:55:18;7.63;;;5.23;;
18042;SDS011;9146;48.074;11.968;2023-05-19T06:57:45;6.27;;;4.87;;
18042;SDS011;9146;48.074;11.968;2023-05-19T07:00:12;6.80;;;5.50;;
18042;SDS011;9146;48.074;11.968;2023-05-19T07:02:41;7.70;;;5.10;;
18042;SDS011;9146;48.074;11.968;2023-05-19T07:05:08;7.73;;;5.27;;
18042;SDS011;9146;48.074;11.968;2023-05-19T07:07:35;9.13;;;5.87;;
18042;SDS011;9146;48.074;11.968;2023-05-19T07:10:02;11.80;;;4.90;;
18042;SDS011;9146;48.074;11.968;2023-05-19T07:12:31;8.00;;;5.17;;
18042;SDS011;9146;48.074;11.968;2023-05-19T07:14:57;6.17;;;5.47;;
18042;SDS011;9146;48.074;11.968;2023-05-19T07:17:24;11.00;;;7.00;;
18042;SDS011;9146;48.074;11.968;2023-05-19T07:19:51;6.13;;;4.83;;
18042;SDS011;9146;48.074;11.968;2023-05-19T07:22:18;5.40;;;4.70;;
18042;SDS011;9146;48.074;11.968;2023-05-19T07:24:46;6.73;;;5.43;;
18042;SDS011;9146;48.074;11.968;2023-05-19T07:27:13;9.53;;;5.00;;
18042;SDS011;9146;48.074;11.968;2023-05-19T07:29:41;7.77;;;4.67;;
18042;SDS011;9146;48.074;11.968;2023-05-19T07:32:08;6.63;;;5.20;;
18042;SDS011;9146;48.074;11.968;2023-05-19T07:34:35;5.37;;;4.87;;
18042;SDS011;9146;48.074;11.968;2023-05-19T07:37:02;9.40;;;4.80;;
18042;SDS011;9146;48.074;11.968;2023-05-19T07:39:29;9.73;;;4.83;;
18042;SDS011;9146;48.074;11.968;2023-05-19T07:41:56;6.33;;;4.77;;
18042;SDS011;9146;48.074;11.968;2023-05-19T07:44:23;6.97;;;4.13;;
18042;SDS011;9146;48.074;11.968;2023-05-19T07:46:52;5.53;;;5.03;;
18042;SDS011;9146;48.074;11.968;2023-05-19T07:49:19;6.07;;;5.47;;
18042;SDS011;9146;48.074;11.968;2023-05-19T07:51:46;7.87;;;3.93;;
18042;SDS011;9146;48.074;11.968;2023-05-19T07:54:13;7.57;;;5.10;;
18042;SDS011;9146;48.074;11.968;2023-05-19T07:56:40;6.30;;;4.97;;
18042;SDS011;9146;48.074;11.968;2023-05-19T07:59:07;10.73;;;5.23;;
18042;SDS011;9146;48.074;11.968;2023-05-19T08:01:33;9.97;;;5.60;;
18042;SDS011;9146;48.074;11.968;2023-05-19T08:04:03;5.20;;;4.13;;
18042;SDS011;9146;48.074;11.968;2023-05-19T08:06:31;5.13;;;4.20;;
18042;SDS011;9146;48.074;11.968;2023-05-19T08:08:59;5.27;;;3.83;;
18042;SDS011;9146;48.074;11.968;2023-05-19T08:11:26;13.37;;;5.03;;
18042;SDS011;9146;48.074;11.968;2023-05-19T08:13:52;5.10;;;3.50;;
18042;SDS011;9146;48.074;11.968;2023-05-19T08:16:19;4.57;;;3.90;;
18042;SDS011;9146;48.074;11.968;2023-05-19T08:18:46;7.70;;;4.00;;
18042;SDS011;9146;48.074;11.968;2023-05-19T08:21:14;7.60;;;4.77;;
18042;SDS011;9146;48.074;11.968;2023-05-19T08:23:41;4.90;;;4.03;;
18042;SDS011;9146;48.074;11.968;2023-05-19T08:26:08;5.27;;;4.30;;
18042;SDS011;9146;48.074;11.968;2023-05-19T08:28:35;5.60;;;4.03;;
18042;SDS011;9146;48.074;11.968;2023-05-19T08:31:02;9.90;;;5.20;;
18042;SDS011;9146;48.074;11.968;2023-05-19T08:33:29;8.97;;;4.40;;
18042;SDS011;9146;48.074;11.968;2023-05-19T08:35:56;5.73;;;3.80;;
18042;SDS011;9146;48.074;11.968;2023-05-19T08:38:25;9.33;;;4.03;;
18042;SDS011;9146;48.074;11.968;2023-05-19T08:40:52;4.90;;;4.23;;
18042;SDS011;9146;48.074;11.968;2023-05-19T08:43:19;5.07;;;4.53;;
18042;SDS011;9146;48.074;11.968;2023-05-19T08:45:46;4.60;;;3.70;;
18042;SDS011;9146;48.074;11.968;2023-05-19T08:48:15;7.00;;;5.10;;
18042;SDS011;9146;48.074;11.968;2023-05-19T08:50:45;6.47;;;4.53;;
18042;SDS011;9146;48.074;11.968;2023-05-19T08:53:19;5.97;;;4.13;;
18042;SDS011;9146;48.074;11.968;2023-05-19T08:55:54;4.93;;;4.33;;
18042;SDS011;9146;48.074;11.968;2023-05-19T08:58:26;8.80;;;4.83;;
18042;SDS011;9146;48.074;11.968;2023-05-19T09:00:55;8.60;;;5.17;;
18042;SDS011;9146;48.074;11.968;2023-05-19T09:03:25;4.20;;;3.80;;
18042;SDS011;9146;48.074;11.968;2023-05-19T09:05:52;5.00;;;4.00;;
18042;SDS011;9146;48.074;11.968;2023-05-19T09:08:19;7.83;;;4.63;;
18042;SDS011;9146;48.074;11.968;2023-05-19T09:10:47;5.50;;;4.20;;
18042;SDS011;9146;48.074;11.968;2023-05-19T09:13:15;5.90;;;4.40;;
18042;SDS011;9146;48.074;11.968;2023-05-19T09:15:42;5.60;;;4.77;;
18042;SDS011;9146;48.074;11.968;2023-05-19T09:18:11;6.20;;;4.43;;
18042;SDS011;9146;48.074;11.968;2023-05-19T09:20:39;6.03;;;5.27;;
18042;SDS011;9146;48.074;11.968;2023-05-19T09:23:11;7.47;;;4.50;;
18042;SDS011;9146;48.074;11.968;2023-05-19T09:25:45;5.67;;;5.00;;
18042;SDS011;9146;48.074;11.968;2023-05-19T09:28:15;8.90;;;4.83;;
18042;SDS011;9146;48.074;11.968;2023-05-19T09:30:53;6.30;;;4.90;;
18042;SDS011;9146;48.074;11.968;2023-05-19T09:33:25;7.93;;;4.80;;
18042;SDS011;9146;48.074;11.968;2023-05-19T09:35:52;6.07;;;5.40;;
18042;SDS011;9146;48.074;11.968;2023-05-19T09:38:20;9.73;;;5.80;;
18042;SDS011;9146;48.074;11.968;2023-05-19T09:40:48;8.93;;;5.47;;
18042;SDS011;9146;48.074;11.968;2023-05-19T09:43:17;7.40;;;5.73;;
18042;SDS011;9146;48.074;11.968;2023-05-19T09:45:44;7.60;;;5.00;;
18042;SDS011;9146;48.074;11.968;2023-05-19T09:48:12;6.93;;;5.80;;
18042;SDS011;9146;48.074;11.968;2023-05-19T09:50:41;7.07;;;5.20;;
18042;SDS011;9146;48.074;11.968;2023-05-19T09:53:10;5.60;;;5.10;;
18042;SDS011;9146;48.074;11.968;2023-05-19T09:55:38;7.80;;;5.47;;
18042;SDS011;9146;48.074;11.968;2023-05-19T09:58:06;11.00;;;6.30;;
18042;SDS011;9146;48.074;11.968;2023-05-19T10:00:35;5.20;;;4.70;;
18042;SDS011;9146;48.074;11.968;2023-05-19T10:03:03;6.10;;;5.50;;
18042;SDS011;9146;48.074;11.968;2023-05-19T10:05:31;9.37;;;6.60;;
18042;SDS011;9146;48.074;11.968;2023-05-19T10:07:58;7.90;;;6.63;;
18042;SDS011;9146;48.074;11.968;2023-05-19T10:10:26;9.77;;;6.67;;
18042;SDS011;9146;48.074;11.968;2023-05-19T10:12:55;9.33;;;6.43;;
18042;SDS011;9146;48.074;11.968;2023-05-19T10:15:23;7.10;;;5.90;;
18042;SDS011;9146;48.074;11.968;2023-05-19T10:17:52;8.73;;;5.07;;
18042;SDS011;9146;48.074;11.968;2023-05-19T10:20:21;7.13;;;6.00;;
18042;SDS011;9146;48.074;11.968;2023-05-19T10:22:48;9.50;;;6.83;;
18042;SDS011;9146;48.074;11.968;2023-05-19T10:25:15;10.70;;;5.60;;
18042;SDS011;9146;48.074;11.968;2023-05-19T10:27:45;7.30;;;6.07;;
18042;SDS011;9146;48.074;11.968;2023-05-19T10:30:20;7.40;;;4.97;;
18042;SDS011;9146;48.074;11.968;2023-05-19T10:32:53;8.80;;;4.90;;
18042;SDS011;9146;48.074;11.968;2023-05-19T10:38:36;11.03;;;5.40;;
18042;SDS011;9146;48.074;11.968;2023-05-19T10:41:09;5.43;;;4.90;;
18042;SDS011;9146;48.074;11.968;2023-05-19T10:43:46;7.03;;;6.30;;
18042;SDS011;9146;48.074;11.968;2023-05-19T10:46:22;7.43;;;5.07;;
18042;SDS011;9146;48.074;11.968;2023-05-19T10:48:50;6.60;;;5.00;;
18042;SDS011;9146;48.074;11.968;2023-05-19T10:51:17;8.77;;;6.37;;
18042;SDS011;9146;48.074;11.968;2023-05-19T10:53:44;9.90;;;6.10;;
18042;SDS011;9146;48.074;11.968;2023-05-19T10:56:26;9.53;;;6.70;;
18042;SDS011;9146;48.074;11.968;2023-05-19T10:59:00;7.20;;;6.50;;
18042;SDS011;9146;48.074;11.968;2023-05-19T11:01:28;13.40;;;7.97;;
18042;SDS011;9146;48.074;11.968;2023-05-19T11:04:02;10.67;;;7.50;;
18042;SDS011;9146;48.074;11.968;2023-05-19T11:06:31;9.20;;;7.37;;
18042;SDS011;9146;48.074;11.968;2023-05-19T11:09:00;8.43;;;6.30;;
18042;SDS011;9146;48.074;11.968;2023-05-19T11:11:43;9.77;;;8.77;;
18042;SDS011;9146;48.074;11.968;2023-05-19T11:14:12;10.20;;;8.53;;
18042;SDS011;9146;48.074;11.968;2023-05-19T11:16:40;8.90;;;8.00;;
18042;SDS011;9146;48.074;11.968;2023-05-19T11:19:17;9.63;;;7.47;;
18042;SDS011;9146;48.074;11.968;2023-05-19T11:21:48;16.30;;;8.80;;
18042;SDS011;9146;48.074;11.968;2023-05-19T11:24:37;10.17;;;8.43;;
18042;SDS011;9146;48.074;11.968;2023-05-19T11:27:24;9.40;;;8.43;;
18042;SDS011;9146;48.074;11.968;2023-05-19T11:29:53;10.40;;;7.80;;
18042;SDS011;9146;48.074;11.968;2023-05-19T11:32:21;8.87;;;7.87;;
18042;SDS011;9146;48.074;11.968;2023-05-19T11:34:52;8.20;;;7.40;;
18042;SDS011;9146;48.074;11.968;2023-05-19T11:37:21;10.13;;;6.73;;
18042;SDS011;9146;48.074;11.968;2023-05-19T11:39:47;12.37;;;9.50;;
18042;SDS011;9146;48.074;11.968;2023-05-19T11:42:16;9.53;;;7.17;;
18042;SDS011;9146;48.074;11.968;2023-05-19T11:44:43;9.10;;;8.20;;
18042;SDS011;9146;48.074;11.968;2023-05-19T11:47:10;10.93;;;9.50;;
18042;SDS011;9146;48.074;11.968;2023-05-19T11:49:41;8.60;;;7.70;;
18042;SDS011;9146;48.074;11.968;2023-05-19T11:52:11;11.20;;;9.07;;
18042;SDS011;9146;48.074;11.968;2023-05-19T11:54:38;10.27;;;8.90;;
18042;SDS011;9146;48.074;11.968;2023-05-19T11:57:07;13.20;;;8.37;;
18042;SDS011;9146;48.074;11.968;2023-05-19T11:59:35;8.53;;;7.73;;
18042;SDS011;9146;48.074;11.968;2023-05-19T12:02:14;11.30;;;8.90;;
18042;SDS011;9146;48.074;11.968;2023-05-19T12:04:42;10.50;;;8.40;;
18042;SDS011;9146;48.074;11.968;2023-05-19T12:07:11;10.47;;;8.20;;
18042;SDS011;9146;48.074;11.968;2023-05-19T12:09:41;8.63;;;7.17;;
18042;SDS011;9146;48.074;11.968;2023-05-19T12:12:09;9.67;;;8.50;;
18042;SDS011;9146;48.074;11.968;2023-05-19T12:14:39;10.80;;;9.67;;
18042;SDS011;9146;48.074;11.968;2023-05-19T12:17:10;13.13;;;9.10;;
18042;SDS011;9146;48.074;11.968;2023-05-19T12:19:38;9.80;;;8.40;;
18042;SDS011;9146;48.074;11.968;2023-05-19T12:22:05;10.33;;;8.40;;
18042;SDS011;9146;48.074;11.968;2023-05-19T12:24:35;8.83;;;7.93;;
18042;SDS011;9146;48.074;11.968;2023-05-19T12:27:08;12.03;;;8.60;;
18042;SDS011;9146;48.074;11.968;2023-05-19T12:29:37;10.97;;;8.60;;
18042;SDS011;9146;48.074;11.968;2023-05-19T12:32:05;10.23;;;8.53;;
18042;SDS011;9146;48.074;11.968;2023-05-19T12:34:34;9.70;;;8.67;;
18042;SDS011;9146;48.074;11.968;2023-05-19T12:37:02;8.00;;;7.20;;
18042;SDS011;9146;48.074;11.968;2023-05-19T12:39:29;9.40;;;7.47;;
18042;SDS011;9146;48.074;11.968;2023-05-19T12:42:03;7.77;;;6.97;;
18042;SDS011;9146;48.074;11.968;2023-05-19T12:44:35;10.70;;;8.37;;
18042;SDS011;9146;48.074;11.968;2023-05-19T12:47:03;7.60;;;6.80;;
18042;SDS011;9146;48.074;11.968;2023-05-19T12:49:31;10.13;;;8.87;;
18042;SDS011;9146;48.074;11.968;2023-05-19T12:51:59;14.03;;;8.87;;
18042;SDS011;9146;48.074;11.968;2023-05-19T12:54:27;9.37;;;8.00;;
18042;SDS011;9146;48.074;11.968;2023-05-19T12:56:58;9.33;;;7.47;;
18042;SDS011;9146;48.074;11.968;2023-05-19T12:59:27;9.30;;;7.80;;
18042;SDS011;9146;48.074;11.968;2023-05-19T13:01:54;9.80;;;8.70;;
18042;SDS011;9146;48.074;11.968;2023-05-19T13:04:21;9.70;;;6.90;;
18042;SDS011;9146;48.074;11.968;2023-05-19T13:06:48;8.97;;;8.10;;
18042;SDS011;9146;48.074;11.968;2023-05-19T13:09:15;8.27;;;7.47;;
18042;SDS011;9146;48.074;11.968;2023-05-19T13:11:43;8.90;;;8.00;;
18042;SDS011;9146;48.074;11.968;2023-05-19T13:14:14;9.33;;;7.30;;
18042;SDS011;9146;48.074;11.968;2023-05-19T13:16:44;10.57;;;7.37;;
18042;SDS011;9146;48.074;11.968;2023-05-19T13:19:11;7.63;;;6.90;;
18042;SDS011;9146;48.074;11.968;2023-05-19T13:21:39;10.57;;;7.43;;
18042;SDS011;9146;48.074;11.968;2023-05-19T13:24:06;11.13;;;9.03;;
18042;SDS011;9146;48.074;11.968;2023-05-19T13:26:33;10.47;;;7.37;;
18042;SDS011;9146;48.074;11.968;2023-05-19T13:29:00;8.93;;;8.03;;
18042;SDS011;9146;48.074;11.968;2023-05-19T13:31:28;8.97;;;8.00;;
18042;SDS011;9146;48.074;11.968;2023-05-19T13:33:57;10.27;;;7.30;;
18042;SDS011;9146;48.074;11.968;2023-05-19T13:36:24;8.20;;;7.33;;
18042;SDS011;9146;48.074;11.968;2023-05-19T13:38:51;9.40;;;8.23;;
18042;SDS011;9146;48.074;11.968;2023-05-19T13:41:21;6.83;;;6.23;;
18042;SDS011;9146;48.074;11.968;2023-05-19T13:43:50;7.73;;;6.93;;
18042;SDS011;9146;48.074;11.968;2023-05-19T13:46:17;7.60;;;6.80;;
18042;SDS011;9146;48.074;11.968;2023-05-19T13:48:44;11.60;;;7.23;;
18042;SDS011;9146;48.074;11.968;2023-05-19T13:51:12;8.40;;;7.13;;
18042;SDS011;9146;48.074;11.968;2023-05-19T13:53:39;6.40;;;5.80;;
18042;SDS011;9146;48.074;11.968;2023-05-19T13:56:06;8.73;;;7.83;;
18042;SDS011;9146;48.074;11.968;2023-05-19T13:58:33;7.23;;;6.53;;
18042;SDS011;9146;48.074;11.968;2023-05-19T14:01:00;10.53;;;8.33;;
18042;SDS011;9146;48.074;11.968;2023-05-19T14:03:27;11.13;;;8.43;;
18042;SDS011;9146;48.074;11.968;2023-05-19T14:05:55;9.63;;;7.90;;
18042;SDS011;9146;48.074;11.968;2023-05-19T14:08:23;7.83;;;7.03;;
18042;SDS011;9146;48.074;11.968;2023-05-19T14:10:50;10.30;;;8.10;;
18042;SDS011;9146;48.074;11.968;2023-05-19T14:13:20;7.77;;;7.00;;
18042;SDS011;9146;48.074;11.968;2023-05-19T14:15:47;9.30;;;7.90;;
18042;SDS011;9146;48.074;11.968;2023-05-19T14:18:13;9.73;;;7.60;;
18042;SDS011;9146;48.074;11.968;2023-05-19T14:20:41;9.20;;;7.70;;
18042;SDS011;9146;48.074;11.968;2023-05-19T14:23:08;9.20;;;7.10;;
18042;SDS011;9146;48.074;11.968;2023-05-19T14:25:36;11.17;;;8.70;;
18042;SDS011;9146;48.074;11.968;2023-05-19T14:28:03;8.80;;;8.00;;
18042;SDS011;9146;48.074;11.968;2023-05-19T14:30:30;10.33;;;9.27;;
18042;SDS011;9146;48.074;11.968;2023-05-19T14:32:57;8.10;;;6.70;;
18042;SDS011;9146;48.074;11.968;2023-05-19T14:35:24;10.17;;;8.13;;
18042;SDS011;9146;48.074;11.968;2023-05-19T14:37:51;13.87;;;8.60;;
18042;SDS011;9146;48.074;11.968;2023-05-19T14:40:18;7.00;;;6.10;;
18042;SDS011;9146;48.074;11.968;2023-05-19T14:42:47;8.90;;;7.70;;
18042;SDS011;9146;48.074;11.968;2023-05-19T14:45:14;10.97;;;8.23;;
18042;SDS011;9146;48.074;11.968;2023-05-19T14:47:40;9.80;;;7.67;;
18042;SDS011;9146;48.074;11.968;2023-05-19T14:50:07;11.50;;;7.60;;
18042;SDS011;9146;48.074;11.968;2023-05-19T14:52:35;12.00;;;7.60;;
18042;SDS011;9146;48.074;11.968;2023-05-19T14:55:02;13.00;;;7.60;;
18042;SDS011;9146;48.074;11.968;2023-05-19T14:57:29;9.13;;;6.93;;